createdAt,value
2023-05-05T00:02:21.126Z,90.60
2023-05-05T00:04:49.167Z,90.20
2023-05-05T00:07:17.099Z,90.30
2023-05-05T00:09:45.066Z,90.90
2023-05-05T00:12:14.386Z,90.40
2023-05-05T00:14:42.749Z,90.20
2023-05-05T00:17:10.810Z,90.10
2023-05-05T00:19:38.886Z,89.90
2023-05-05T00:22:07.056Z,90.00
2023-05-05T00:24:35.053Z,90.40
2023-05-05T00:27:03.487Z,91.40
2023-05-05T00:29:32.981Z,91.20
2023-05-05T00:32:00.974Z,91.00
2023-05-05T00:34:30.037Z,91.20
2023-05-05T00:36:58.015Z,90.90
2023-05-05T00:39:26.085Z,91.10
2023-05-05T00:41:54.243Z,91.50
2023-05-05T00:44:39.289Z,91.00
2023-05-05T00:47:08.630Z,91.10
2023-05-05T00:49:37.183Z,92.10
2023-05-05T00:52:06.679Z,93.90
2023-05-05T00:54:35.325Z,93.90
2023-05-05T00:57:04.033Z,94.00
2023-05-05T00:59:33.873Z,94.10
2023-05-05T01:02:03.372Z,94.00
2023-05-05T01:04:31.400Z,93.90
2023-05-05T01:07:09.031Z,93.30
2023-05-05T01:09:43.833Z,93.70
2023-05-05T01:12:22.307Z,94.80
2023-05-05T01:15:01.498Z,95.70
2023-05-05T01:17:39.218Z,96.50
2023-05-05T01:20:18.119Z,97.20
2023-05-05T01:22:50.137Z,98.40
2023-05-05T01:25:43.575Z,99.10
2023-05-05T01:28:29.357Z,99.10
2023-05-05T01:31:27.945Z,99.30
2023-05-05T01:34:04.109Z,99.60
2023-05-05T01:36:37.035Z,98.70
2023-05-05T01:39:07.837Z,98.10
2023-05-05T01:41:42.607Z,98.60
2023-05-05T01:44:12.848Z,99.00
2023-05-05T01:46:41.038Z,99.00
2023-05-05T01:49:12.080Z,99.10
2023-05-05T01:51:41.387Z,99.40
2023-05-05T01:54:10.996Z,99.90
2023-05-05T01:56:41.091Z,99.90
2023-05-05T01:59:10.445Z,99.90
2023-05-05T02:01:44.499Z,99.90
2023-05-05T02:04:16.034Z,99.90
2023-05-05T02:06:47.512Z,99.90
2023-05-05T02:09:16.131Z,99.90
2023-05-05T02:11:44.332Z,99.90
2023-05-05T02:14:13.464Z,99.90
2023-05-05T02:16:43.445Z,99.90
2023-05-05T02:19:13.249Z,99.90
2023-05-05T02:21:41.756Z,99.90
2023-05-05T02:24:10.219Z,99.70
2023-05-05T02:26:41.146Z,99.60
2023-05-05T02:29:12.811Z,99.70
2023-05-05T02:31:43.945Z,99.80
2023-05-05T02:34:17.341Z,99.70
2023-05-05T02:36:47.850Z,99.90
2023-05-05T02:39:21.554Z,99.90
2023-05-05T02:41:50.657Z,99.90
2023-05-05T02:44:20.900Z,99.90
2023-05-05T02:46:49.345Z,99.90
2023-05-05T02:49:18.656Z,99.90
2023-05-05T02:51:46.583Z,99.90
2023-05-05T02:54:14.705Z,99.90
2023-05-05T02:56:48.682Z,99.90
2023-05-05T02:59:22.823Z,99.90
2023-05-05T03:01:57.752Z,99.90
2023-05-05T03:04:30.830Z,99.90
2023-05-05T03:07:00.512Z,99.90
2023-05-05T03:09:34.155Z,99.90
2023-05-05T03:12:04.816Z,99.90
2023-05-05T03:14:38.039Z,99.90
2023-05-05T03:17:07.455Z,99.90
2023-05-05T03:19:38.216Z,99.90
2023-05-05T03:22:06.380Z,99.90
2023-05-05T03:24:34.445Z,99.90
2023-05-05T03:27:03.059Z,99.90
2023-05-05T03:29:31.166Z,99.90
2023-05-05T03:32:00.997Z,99.90
2023-05-05T03:34:28.973Z,99.90
2023-05-05T03:36:58.224Z,99.90
2023-05-05T03:39:26.234Z,99.90
2023-05-05T03:41:54.186Z,99.90
2023-05-05T03:44:22.159Z,99.90
2023-05-05T03:46:50.078Z,99.90
2023-05-05T03:49:18.049Z,99.90
2023-05-05T03:51:46.773Z,99.90
2023-05-05T03:54:16.669Z,99.90
2023-05-05T03:56:44.633Z,99.90
2023-05-05T03:59:12.591Z,99.90
2023-05-05T04:01:40.504Z,99.90
2023-05-05T04:04:09.407Z,99.90
2023-05-05T04:06:37.471Z,99.90
2023-05-05T04:09:05.723Z,99.90
2023-05-05T04:11:35.024Z,99.90
2023-05-05T04:14:02.921Z,99.90
2023-05-05T04:16:31.031Z,99.90
2023-05-05T04:18:59.118Z,99.90
2023-05-05T04:21:27.094Z,99.90
2023-05-05T04:23:55.024Z,99.90
2023-05-05T04:26:23.028Z,99.90
2023-05-05T04:28:52.308Z,99.90
2023-05-05T04:31:20.326Z,99.90
2023-05-05T04:33:48.513Z,99.90
2023-05-05T04:36:16.475Z,99.90
2023-05-05T04:38:44.410Z,99.90
2023-05-05T04:41:12.392Z,99.90
2023-05-05T04:43:40.907Z,99.90
2023-05-05T04:46:10.241Z,99.90
2023-05-05T04:48:38.516Z,99.90
2023-05-05T04:51:07.028Z,99.90
2023-05-05T04:53:35.028Z,99.90
2023-05-05T04:56:03.389Z,99.90
2023-05-05T04:58:31.337Z,99.90
2023-05-05T05:00:59.312Z,99.90
2023-05-05T05:03:28.712Z,93.40
2023-05-05T05:05:56.741Z,81.60
2023-05-05T05:08:24.724Z,71.80
2023-05-05T05:10:52.751Z,70.40
2023-05-05T05:13:20.854Z,71.00
2023-05-05T05:15:48.836Z,69.60
2023-05-05T05:18:16.883Z,67.60
2023-05-05T05:20:46.400Z,62.70
2023-05-05T05:23:14.364Z,63.40
2023-05-05T05:25:43.158Z,61.50
2023-05-05T05:28:11.226Z,59.00
2023-05-05T05:30:39.255Z,58.90
2023-05-05T05:33:07.683Z,59.00
2023-05-05T05:35:35.710Z,58.80
2023-05-05T05:38:05.059Z,60.00
2023-05-05T05:40:33.131Z,61.10
2023-05-05T05:43:01.282Z,63.70
2023-05-05T05:45:29.247Z,65.10
2023-05-05T05:47:57.228Z,67.60
2023-05-05T05:50:28.400Z,70.70
2023-05-05T05:52:56.512Z,72.70
2023-05-05T05:55:25.802Z,73.60
2023-05-05T05:57:53.775Z,75.30
2023-05-05T06:00:21.875Z,74.70
2023-05-05T06:02:51.339Z,74.50
2023-05-05T06:05:19.477Z,74.80
2023-05-05T06:07:47.479Z,75.20
2023-05-05T06:10:27.172Z,74.70
2023-05-05T06:12:57.498Z,74.50
2023-05-05T06:15:25.937Z,73.50
2023-05-05T06:17:54.066Z,73.20
2023-05-05T06:20:22.248Z,73.20
2023-05-05T06:22:50.262Z,73.80
2023-05-05T06:25:18.473Z,74.40
2023-05-05T06:27:46.475Z,74.40
2023-05-05T06:30:16.237Z,74.60
2023-05-05T06:32:44.267Z,74.50
2023-05-05T06:35:12.297Z,75.60
2023-05-05T06:37:40.264Z,75.40
2023-05-05T06:40:10.361Z,75.40
2023-05-05T06:42:38.607Z,75.10
2023-05-05T06:45:07.516Z,74.90
2023-05-05T06:47:37.201Z,74.90
2023-05-05T06:50:06.190Z,75.30
2023-05-05T06:52:34.380Z,76.20
2023-05-05T06:55:03.667Z,76.50
2023-05-05T06:57:31.734Z,77.40
2023-05-05T06:59:59.706Z,75.60
2023-05-05T07:02:27.694Z,75.40
2023-05-05T07:04:57.004Z,75.50
2023-05-05T07:07:24.930Z,75.70
2023-05-05T07:09:52.887Z,75.70
2023-05-05T07:12:20.910Z,75.70
2023-05-05T07:14:49.023Z,75.00
2023-05-05T07:17:17.117Z,74.40
2023-05-05T07:19:45.041Z,73.80
2023-05-05T07:22:14.357Z,73.60
2023-05-05T07:24:42.312Z,73.90
2023-05-05T07:27:10.580Z,75.30
2023-05-05T07:29:38.572Z,76.80
2023-05-05T07:32:06.946Z,78.60
2023-05-05T07:34:36.964Z,79.90
2023-05-05T07:37:05.248Z,80.80
2023-05-05T07:39:34.946Z,81.50
2023-05-05T07:42:02.989Z,81.70
2023-05-05T07:44:31.702Z,82.10
2023-05-05T07:46:59.860Z,81.50
2023-05-05T07:49:27.875Z,80.60
2023-05-05T07:51:55.968Z,78.60
2023-05-05T07:54:23.975Z,77.10
2023-05-05T07:56:53.341Z,77.10
2023-05-05T07:59:21.631Z,75.30
2023-05-05T08:01:49.750Z,74.60
2023-05-05T08:04:17.763Z,74.60
2023-05-05T08:06:45.773Z,75.50
2023-05-05T08:09:13.777Z,75.60
2023-05-05T08:11:41.743Z,74.00
2023-05-05T08:14:11.214Z,73.10
2023-05-05T08:16:39.255Z,73.10
2023-05-05T08:19:17.690Z,74.20
2023-05-05T08:21:53.142Z,74.60
2023-05-05T08:24:21.127Z,73.70
2023-05-05T08:26:49.161Z,71.50
2023-05-05T08:29:18.491Z,71.30
2023-05-05T08:31:46.491Z,71.50
2023-05-05T08:34:14.517Z,71.80
2023-05-05T08:36:42.505Z,72.50
2023-05-05T08:39:10.731Z,72.30
2023-05-05T08:41:38.756Z,72.50
2023-05-05T08:44:06.692Z,72.60
2023-05-05T08:46:37.173Z,72.90
2023-05-05T08:49:06.826Z,74.30
2023-05-05T08:51:41.279Z,74.80
2023-05-05T08:54:15.211Z,76.70
2023-05-05T08:56:43.650Z,77.20
2023-05-05T08:59:13.222Z,79.30
2023-05-05T09:01:42.878Z,80.20
2023-05-05T09:04:11.742Z,80.70
2023-05-05T09:06:39.737Z,81.60
2023-05-05T09:09:08.339Z,81.00
2023-05-05T09:11:37.346Z,81.40
2023-05-05T09:14:05.382Z,80.10
2023-05-05T09:16:33.412Z,79.30
2023-05-05T09:19:06.322Z,79.30
2023-05-05T09:21:34.291Z,78.80
2023-05-05T09:24:08.944Z,78.90
2023-05-05T09:26:38.974Z,78.80
2023-05-05T09:29:07.401Z,77.90
2023-05-05T09:31:37.025Z,76.40
2023-05-05T09:34:18.744Z,75.80
2023-05-05T09:36:48.913Z,74.00
2023-05-05T09:39:19.241Z,74.60
2023-05-05T09:41:47.354Z,76.00
2023-05-05T09:44:16.925Z,75.30
2023-05-05T09:46:52.367Z,73.80
2023-05-05T09:49:26.669Z,74.80
2023-05-05T09:51:55.836Z,75.40
2023-05-05T09:54:28.341Z,74.60
2023-05-05T09:56:56.987Z,73.70
2023-05-05T09:59:25.656Z,72.40
2023-05-05T10:01:53.788Z,72.70
2023-05-05T10:04:28.029Z,72.90
2023-05-05T10:06:57.287Z,72.60
2023-05-05T10:09:25.867Z,71.60
2023-05-05T10:11:54.578Z,70.20
2023-05-05T10:14:25.256Z,68.80
2023-05-05T10:16:54.656Z,68.90
2023-05-05T10:19:23.778Z,68.10
2023-05-05T10:21:54.380Z,66.70
2023-05-05T10:24:28.589Z,65.70
2023-05-05T10:26:59.553Z,65.60
2023-05-05T10:29:37.501Z,65.80
2023-05-05T10:32:30.207Z,66.80
2023-05-05T10:35:01.301Z,67.50
2023-05-05T10:37:31.110Z,68.00
2023-05-05T10:39:59.622Z,69.10
2023-05-05T10:42:27.763Z,69.90
2023-05-05T10:44:56.260Z,71.10
2023-05-05T10:47:25.387Z,72.00
2023-05-05T10:49:58.214Z,72.30
2023-05-05T10:52:35.000Z,72.30
2023-05-05T10:55:10.562Z,71.20
2023-05-05T10:57:41.848Z,71.80
2023-05-05T11:00:10.944Z,69.70
2023-05-05T11:02:40.122Z,69.10
2023-05-05T11:05:10.273Z,69.00
2023-05-05T11:07:39.975Z,67.50
2023-05-05T11:10:09.244Z,64.70
2023-05-05T11:13:14.689Z,53.10
2023-05-05T11:15:42.685Z,52.50
2023-05-05T11:18:30.403Z,47.10
2023-05-05T11:21:15.638Z,46.80
2023-05-05T11:23:47.066Z,44.10
2023-05-05T11:26:15.872Z,33.20
2023-05-05T11:29:02.389Z,34.70
2023-05-05T11:31:31.595Z,34.30
2023-05-05T11:34:27.870Z,35.10
2023-05-05T11:37:02.234Z,33.80
2023-05-05T11:39:39.323Z,31.70
2023-05-05T11:42:24.484Z,29.70
2023-05-05T11:44:52.711Z,29.50
2023-05-05T11:47:32.225Z,31.20
2023-05-05T11:50:16.055Z,28.60
2023-05-05T11:52:44.120Z,29.30
2023-05-05T11:55:13.631Z,28.30
2023-05-05T11:57:41.568Z,28.70
2023-05-05T12:00:10.484Z,32.40
2023-05-05T12:02:38.711Z,28.60
2023-05-05T12:05:07.945Z,29.00
2023-05-05T12:07:35.973Z,28.00
2023-05-05T12:10:04.092Z,24.80
2023-05-05T12:12:37.740Z,26.20
2023-05-05T12:15:07.597Z,24.30
2023-05-05T12:17:40.649Z,23.30
2023-05-05T12:20:10.959Z,22.60
2023-05-05T12:22:39.947Z,25.00
2023-05-05T12:25:09.431Z,23.60
2023-05-05T12:27:39.124Z,19.80
2023-05-05T12:30:16.151Z,18.70
2023-05-05T12:32:45.322Z,20.40
2023-05-05T12:35:14.366Z,20.10
2023-05-05T12:37:43.300Z,18.50
2023-05-05T12:40:45.631Z,19.30
2023-05-05T12:43:28.922Z,20.30
2023-05-05T12:46:05.914Z,19.50
2023-05-05T12:48:34.665Z,19.00
2023-05-05T12:51:16.755Z,17.00
2023-05-05T12:53:45.072Z,16.40
2023-05-05T12:56:34.698Z,16.30
2023-05-05T12:59:05.536Z,18.30
2023-05-05T13:01:33.755Z,18.30
2023-05-05T13:04:10.566Z,18.30
2023-05-05T13:06:38.826Z,14.40
2023-05-05T13:09:07.775Z,11.00
2023-05-05T13:11:37.148Z,14.90
2023-05-05T13:14:07.751Z,12.90
2023-05-05T13:16:35.975Z,13.90
2023-05-05T13:19:03.917Z,13.50
2023-05-05T13:21:31.880Z,10.60
2023-05-05T13:24:18.320Z,11.60
2023-05-05T13:26:48.459Z,11.70
2023-05-05T13:29:17.907Z,11.50
2023-05-05T13:31:46.491Z,9.50
2023-05-05T13:34:14.507Z,10.00
2023-05-05T13:36:42.450Z,8.30
2023-05-05T13:39:11.246Z,10.70
2023-05-05T13:41:39.341Z,10.80
2023-05-05T13:44:07.348Z,16.20
2023-05-05T13:46:36.672Z,18.60
2023-05-05T13:49:04.633Z,20.50
2023-05-05T13:51:34.523Z,22.00
2023-05-05T13:54:02.965Z,23.00
2023-05-05T13:56:31.052Z,24.70
2023-05-05T13:58:59.035Z,26.20
2023-05-05T14:01:27.238Z,26.40
2023-05-05T14:03:57.639Z,27.60
2023-05-05T14:06:26.366Z,29.20
2023-05-05T14:08:54.452Z,28.60
2023-05-05T14:11:22.851Z,28.80
2023-05-05T14:13:51.960Z,29.10
2023-05-05T14:16:19.987Z,30.60
2023-05-05T14:18:48.050Z,31.50
2023-05-05T14:21:17.332Z,30.50
2023-05-05T14:23:45.209Z,30.40
2023-05-05T14:26:13.191Z,29.90
2023-05-05T14:28:42.154Z,28.90
2023-05-05T14:31:11.057Z,28.40
2023-05-05T14:33:39.030Z,29.90
2023-05-05T14:36:07.723Z,29.10
2023-05-05T14:38:37.037Z,33.10
2023-05-05T14:41:05.565Z,35.50
2023-05-05T14:43:33.563Z,35.90
2023-05-05T14:46:06.508Z,37.80
2023-05-05T14:48:35.063Z,39.80
2023-05-05T14:51:03.139Z,38.60
2023-05-05T14:53:31.397Z,39.20
2023-05-05T14:56:02.134Z,37.30
2023-05-05T14:58:31.032Z,37.50
2023-05-05T15:01:00.363Z,38.10
2023-05-05T15:03:28.499Z,38.90
2023-05-05T15:05:56.628Z,38.60
2023-05-05T15:08:24.971Z,40.00
2023-05-05T15:10:52.890Z,40.50
2023-05-05T15:13:22.252Z,40.90
2023-05-05T15:15:51.233Z,41.20
2023-05-05T15:18:19.975Z,43.90
2023-05-05T15:20:47.896Z,46.70
2023-05-05T15:23:16.100Z,53.30
2023-05-05T15:25:44.286Z,59.70
2023-05-05T15:28:12.211Z,61.50
2023-05-05T15:30:41.482Z,62.10
2023-05-05T15:33:09.484Z,64.20
2023-05-05T15:35:37.546Z,68.90
2023-05-05T15:38:05.564Z,70.60
2023-05-05T15:40:33.614Z,72.70
2023-05-05T15:43:01.523Z,74.00
2023-05-05T15:45:29.434Z,73.80
2023-05-05T15:47:58.738Z,75.10
2023-05-05T15:50:26.754Z,78.00
2023-05-05T15:52:56.773Z,78.90
2023-05-05T15:55:24.940Z,81.50
2023-05-05T15:57:52.917Z,84.30
2023-05-05T16:00:21.364Z,87.30
2023-05-05T16:02:49.465Z,87.50
2023-05-05T16:05:20.703Z,88.10
2023-05-05T16:07:50.806Z,88.70
2023-05-05T16:10:19.439Z,86.80
2023-05-05T16:12:47.510Z,87.10
2023-05-05T16:15:15.620Z,86.50
2023-05-05T16:17:43.623Z,86.60
2023-05-05T16:20:12.696Z,88.10
2023-05-05T16:22:42.108Z,89.70
2023-05-05T16:25:10.985Z,90.50
2023-05-05T16:27:39.165Z,91.60
2023-05-05T16:30:08.778Z,92.40
2023-05-05T16:32:36.748Z,93.50
2023-05-05T16:35:07.143Z,94.20
2023-05-05T16:37:35.346Z,95.00
2023-05-05T16:40:05.995Z,96.20
2023-05-05T16:42:33.901Z,96.20
2023-05-05T16:45:01.812Z,95.90
2023-05-05T16:47:29.832Z,95.40
2023-05-05T16:49:57.843Z,95.30
2023-05-05T16:52:25.821Z,95.00
2023-05-05T16:54:55.582Z,94.00
2023-05-05T16:57:25.028Z,93.10
2023-05-05T16:59:56.173Z,92.90
2023-05-05T17:02:24.085Z,93.10
2023-05-05T17:04:52.148Z,93.40
2023-05-05T17:07:20.117Z,92.60
2023-05-05T17:09:48.111Z,93.00
2023-05-05T17:12:16.074Z,92.40
2023-05-05T17:14:46.031Z,92.70
2023-05-05T17:17:14.013Z,92.90
2023-05-05T17:19:42.543Z,92.90
2023-05-05T17:22:10.501Z,92.70
2023-05-05T17:24:38.453Z,92.40
2023-05-05T17:27:06.457Z,93.00
2023-05-05T17:29:39.350Z,93.70
2023-05-05T17:32:09.207Z,93.80
2023-05-05T17:34:37.342Z,93.70
2023-05-05T17:37:05.294Z,94.60
2023-05-05T17:39:33.757Z,95.50
2023-05-05T17:42:01.679Z,96.10
2023-05-05T17:44:31.346Z,95.80
2023-05-05T17:46:59.371Z,97.20
2023-05-05T17:49:28.633Z,98.50
2023-05-05T17:51:56.532Z,98.30
2023-05-05T17:54:24.407Z,98.50
2023-05-05T17:56:52.544Z,99.40
2023-05-05T17:59:20.551Z,99.90
2023-05-05T18:01:48.574Z,99.90
2023-05-05T18:04:16.511Z,99.90
2023-05-05T18:06:45.818Z,99.90
2023-05-05T18:09:13.750Z,99.90
2023-05-05T18:11:42.100Z,99.90
2023-05-05T18:14:10.680Z,99.90
2023-05-05T18:16:38.660Z,99.90
2023-05-05T18:19:07.202Z,99.90
2023-05-05T18:21:35.157Z,99.90
2023-05-05T18:24:15.727Z,99.90
2023-05-05T18:26:49.304Z,99.90
2023-05-05T18:29:17.702Z,99.90
2023-05-05T18:31:48.339Z,99.90
2023-05-05T18:34:16.922Z,99.90
2023-05-05T18:36:45.019Z,99.90
2023-05-05T18:39:14.549Z,99.90
2023-05-05T18:41:42.465Z,99.90
2023-05-05T18:44:10.698Z,99.90
2023-05-05T18:46:38.674Z,99.90
2023-05-05T18:49:06.703Z,99.90
2023-05-05T18:51:34.632Z,99.90
2023-05-05T18:54:02.573Z,99.90
2023-05-05T18:56:31.858Z,99.90
2023-05-05T18:58:59.773Z,99.90
2023-05-05T19:01:27.709Z,99.90
2023-05-05T19:03:55.742Z,99.90
2023-05-05T19:06:24.085Z,99.90
2023-05-05T19:08:51.981Z,99.90
2023-05-05T19:11:19.906Z,99.90
2023-05-05T19:13:49.282Z,99.90
2023-05-05T19:16:17.360Z,99.90
2023-05-05T19:18:45.431Z,99.90
2023-05-05T19:21:13.327Z,99.90
2023-05-05T19:23:41.288Z,99.90
2023-05-05T19:26:10.259Z,99.90
2023-05-05T19:28:38.186Z,99.90
2023-05-05T19:31:07.465Z,99.90
2023-05-05T19:33:36.359Z,99.90
2023-05-05T19:36:04.507Z,99.90
2023-05-05T19:38:32.480Z,99.90
2023-05-05T19:41:00.573Z,99.90
2023-05-05T19:43:28.553Z,99.90
2023-05-05T19:45:56.578Z,99.90
2023-05-05T19:48:26.440Z,99.90
2023-05-05T19:50:54.454Z,99.90
2023-05-05T19:53:22.420Z,99.90
2023-05-05T19:55:50.595Z,99.90
2023-05-05T19:58:18.836Z,99.90
2023-05-05T20:00:46.806Z,99.90
2023-05-05T20:03:14.848Z,99.90
2023-05-05T20:05:44.312Z,99.90
2023-05-05T20:08:12.226Z,99.90
2023-05-05T20:10:40.149Z,99.90
2023-05-05T20:13:08.247Z,99.90
2023-05-05T20:15:36.259Z,99.90
2023-05-05T20:18:04.522Z,99.90
2023-05-05T20:20:32.463Z,99.90
2023-05-05T20:23:01.798Z,99.90
2023-05-05T20:25:29.794Z,99.90
2023-05-05T20:27:57.750Z,99.90
2023-05-05T20:30:25.700Z,99.90
2023-05-05T20:32:54.294Z,99.90
2023-05-05T20:35:22.513Z,99.90
2023-05-05T20:37:51.281Z,99.90
2023-05-05T20:40:20.720Z,99.90
2023-05-05T20:42:48.620Z,99.90
2023-05-05T20:45:16.608Z,99.90
2023-05-05T20:47:44.678Z,99.90
2023-05-05T20:50:12.906Z,99.90
2023-05-05T20:52:40.869Z,99.90
2023-05-05T20:55:09.342Z,99.90
2023-05-05T20:57:38.630Z,99.90
2023-05-05T21:00:07.991Z,99.90
2023-05-05T21:02:36.404Z,99.90
2023-05-05T21:05:05.112Z,99.90
2023-05-05T21:07:34.189Z,99.90
2023-05-05T21:10:02.592Z,99.90
2023-05-05T21:12:31.008Z,99.90
2023-05-05T21:15:00.328Z,99.90
2023-05-05T21:17:28.592Z,99.90
2023-05-05T21:19:57.431Z,99.90
2023-05-05T21:22:25.428Z,99.90
2023-05-05T21:24:53.392Z,99.90
2023-05-05T21:27:21.348Z,99.90
2023-05-05T21:29:51.963Z,99.90
2023-05-05T21:32:21.289Z,99.90
2023-05-05T21:34:49.355Z,99.90
2023-05-05T21:37:17.319Z,99.90
2023-05-05T21:39:45.225Z,99.90
2023-05-05T21:42:13.181Z,99.90
2023-05-05T21:44:41.114Z,99.90
2023-05-05T21:47:10.510Z,99.90
2023-05-05T21:49:39.869Z,99.90
2023-05-05T21:52:07.833Z,99.90
2023-05-05T21:54:35.782Z,99.90
2023-05-05T21:57:03.802Z,99.90
2023-05-05T21:59:31.718Z,99.90
2023-05-05T22:01:59.919Z,99.90
2023-05-05T22:04:28.017Z,99.90
2023-05-05T22:06:57.371Z,99.90
2023-05-05T22:09:25.510Z,99.90
2023-05-05T22:11:53.420Z,99.90
2023-05-05T22:14:21.417Z,99.90
2023-05-05T22:16:49.377Z,99.90
2023-05-05T22:19:17.342Z,99.90
2023-05-05T22:21:45.291Z,99.90
2023-05-05T22:24:14.620Z,99.90
2023-05-05T22:26:43.342Z,99.90
2023-05-05T22:29:11.997Z,99.90
2023-05-05T22:31:40.159Z,99.90
2023-05-05T22:34:08.322Z,99.90
2023-05-05T22:36:36.249Z,99.90
2023-05-05T22:39:04.271Z,99.90
2023-05-05T22:41:33.567Z,99.90
2023-05-05T22:44:01.632Z,99.90
2023-05-05T22:46:29.622Z,99.90
2023-05-05T22:48:57.628Z,99.90
2023-05-05T22:51:25.541Z,99.90
2023-05-05T22:53:53.452Z,99.90
2023-05-05T22:56:21.420Z,99.90
2023-05-05T22:58:50.855Z,99.90
2023-05-05T23:01:18.812Z,99.90
2023-05-05T23:03:46.734Z,99.90
2023-05-05T23:06:14.686Z,99.90
2023-05-05T23:08:42.705Z,99.90
2023-05-05T23:11:10.653Z,99.90
2023-05-05T23:13:38.683Z,99.90
2023-05-05T23:16:09.257Z,99.90
2023-05-05T23:18:37.419Z,99.90
2023-05-05T23:21:05.611Z,99.90
2023-05-05T23:23:33.574Z,99.90
2023-05-05T23:26:01.495Z,99.90
2023-05-05T23:28:29.380Z,99.90
2023-05-05T23:30:57.439Z,99.90
2023-05-05T23:33:26.816Z,99.90
2023-05-05T23:35:54.979Z,99.90
2023-05-05T23:38:22.911Z,99.90
2023-05-05T23:40:50.843Z,99.90
2023-05-05T23:43:18.797Z,99.90
2023-05-05T23:45:46.748Z,99.90
2023-05-05T23:48:14.635Z,99.90
2023-05-05T23:50:43.973Z,99.90
2023-05-05T23:53:11.942Z,99.90
2023-05-05T23:55:39.898Z,99.90
2023-05-05T23:58:07.852Z,99.90
